createdAt,value
2019-03-27T00:01:12.002Z,102032.16
2019-03-27T00:04:16.379Z,102036.48
2019-03-27T00:07:21.061Z,102033.81
2019-03-27T00:10:25.482Z,102031.19
2019-03-27T00:13:30.586Z,102024.19
2019-03-27T00:16:35.069Z,102024.64
2019-03-27T00:19:39.828Z,102022.73
2019-03-27T00:22:44.499Z,102022.64
2019-03-27T00:25:49.125Z,102018.70
2019-03-27T00:28:53.702Z,102018.29
2019-03-27T00:31:58.535Z,102015.62
2019-03-27T00:35:03.202Z,102015.66
2019-03-27T00:38:07.784Z,102013.98
2019-03-27T00:41:12.381Z,102011.02
2019-03-27T00:44:17.087Z,101996.23
2019-03-27T00:47:22.016Z,102001.05
2019-03-27T00:50:26.844Z,102005.88
2019-03-27T00:53:31.383Z,102010.29
2019-03-27T00:56:36.308Z,102003.39
2019-03-27T00:59:41.143Z,102007.80
2019-03-27T01:02:46.917Z,102004.80
2019-03-27T01:05:52.238Z,102000.89
2019-03-27T01:08:57.513Z,102004.34
2019-03-27T01:12:02.312Z,101997.30
2019-03-27T01:15:07.356Z,101997.38
2019-03-27T01:18:11.745Z,102003.08
2019-03-27T01:21:16.509Z,101997.34
2019-03-27T01:24:21.035Z,101996.43
2019-03-27T01:27:25.375Z,102005.55
2019-03-27T01:30:29.825Z,102002.94
2019-03-27T01:33:35.859Z,101999.81
2019-03-27T01:36:40.589Z,101994.00
2019-03-27T01:39:45.114Z,102003.50
2019-03-27T01:42:49.535Z,101999.06
2019-03-27T01:45:53.960Z,101999.91
2019-03-27T01:48:58.676Z,101997.77
2019-03-27T01:52:03.768Z,101995.59
2019-03-27T01:55:09.193Z,102001.12
2019-03-27T01:58:13.997Z,101992.17
2019-03-27T02:01:18.595Z,101993.77
2019-03-27T02:04:23.264Z,101988.33
2019-03-27T02:07:28.005Z,101988.78
2019-03-27T02:10:32.480Z,101983.34
2019-03-27T02:13:36.931Z,101977.08
2019-03-27T02:16:41.440Z,101984.84
2019-03-27T02:19:46.290Z,101986.67
2019-03-27T02:22:51.114Z,101992.90
2019-03-27T02:25:55.597Z,101996.10
2019-03-27T02:29:00.310Z,101997.44
2019-03-27T02:32:04.837Z,102001.41
2019-03-27T02:35:09.599Z,102003.59
2019-03-27T02:38:14.292Z,102007.49
2019-03-27T02:41:18.767Z,102006.09
2019-03-27T02:44:23.466Z,102004.53
2019-03-27T02:47:28.331Z,101998.23
2019-03-27T02:50:32.838Z,102004.61
2019-03-27T02:53:37.258Z,102002.52
2019-03-27T02:56:41.905Z,101999.55
2019-03-27T02:59:46.332Z,101998.45
2019-03-27T03:02:53.250Z,102004.62
2019-03-27T03:05:57.741Z,102008.61
2019-03-27T03:09:03.193Z,102011.35
2019-03-27T03:12:07.754Z,102008.28
2019-03-27T03:15:12.888Z,102007.05
2019-03-27T03:18:17.767Z,101998.00
2019-03-27T03:21:22.180Z,102007.13
2019-03-27T03:24:30.208Z,102007.09
2019-03-27T03:27:34.709Z,102002.66
2019-03-27T03:30:39.171Z,101998.33
2019-03-27T03:33:44.634Z,101999.28
2019-03-27T03:36:49.138Z,102005.89
2019-03-27T03:39:54.393Z,102003.29
2019-03-27T03:42:59.428Z,102001.08
2019-03-27T03:46:04.196Z,102003.23
2019-03-27T03:49:08.982Z,102001.80
2019-03-27T03:52:17.445Z,101999.92
2019-03-27T03:55:21.927Z,102008.20
2019-03-27T03:58:29.075Z,102009.20
2019-03-27T04:01:35.747Z,102006.70
2019-03-27T04:04:41.768Z,102006.32
2019-03-27T04:07:46.409Z,102011.51
2019-03-27T04:10:50.920Z,102017.18
2019-03-27T04:13:55.974Z,102016.68
2019-03-27T04:17:16.243Z,102012.69
2019-03-27T04:20:07.860Z,102013.48
2019-03-27T04:23:12.560Z,102008.68
2019-03-27T04:26:17.046Z,102014.37
2019-03-27T04:29:21.572Z,102013.84
2019-03-27T04:32:26.399Z,102009.81
2019-03-27T04:35:31.232Z,102013.28
2019-03-27T04:38:35.923Z,102015.52
2019-03-27T04:41:40.676Z,102006.95
2019-03-27T04:44:45.255Z,102005.23
2019-03-27T04:47:49.666Z,102006.06
2019-03-27T04:50:55.137Z,102006.97
2019-03-27T04:53:59.609Z,102014.31
2019-03-27T04:57:04.126Z,102015.57
2019-03-27T05:00:12.532Z,102020.78
2019-03-27T05:03:16.935Z,102024.36
2019-03-27T05:06:21.346Z,102019.60
2019-03-27T05:09:26.107Z,102023.08
2019-03-27T05:12:32.092Z,102026.66
2019-03-27T05:15:36.717Z,102023.17
2019-03-27T05:18:41.244Z,102024.98
2019-03-27T05:21:45.855Z,102026.33
2019-03-27T05:24:50.570Z,102025.80
2019-03-27T05:27:55.114Z,102035.28
2019-03-27T05:30:59.877Z,102032.77
2019-03-27T05:34:04.522Z,102044.17
2019-03-27T05:37:08.993Z,102043.23
2019-03-27T05:40:13.553Z,102051.23
2019-03-27T05:43:18.435Z,102051.30
2019-03-27T05:46:26.378Z,102052.11
2019-03-27T05:49:29.331Z,102055.61
2019-03-27T05:52:33.733Z,102056.30
2019-03-27T05:55:38.184Z,102063.80
2019-03-27T05:58:43.668Z,102059.99
2019-03-27T06:01:48.164Z,102064.02
2019-03-27T06:04:52.628Z,102068.79
2019-03-27T06:07:57.043Z,102070.31
2019-03-27T06:11:02.595Z,102068.17
2019-03-27T06:14:08.345Z,102074.81
2019-03-27T06:17:12.806Z,102070.84
2019-03-27T06:20:17.318Z,102080.91
2019-03-27T06:23:22.087Z,102079.16
2019-03-27T06:26:26.634Z,102081.00
2019-03-27T06:29:31.243Z,102077.05
2019-03-27T06:32:38.956Z,102079.52
2019-03-27T06:35:43.531Z,102075.09
2019-03-27T06:38:47.998Z,102069.02
2019-03-27T06:41:53.222Z,102068.73
2019-03-27T06:44:57.901Z,102068.83
2019-03-27T06:48:02.971Z,102071.53
2019-03-27T06:51:07.758Z,102070.80
2019-03-27T06:54:12.309Z,102076.14
2019-03-27T06:57:17.027Z,102083.65
2019-03-27T07:00:32.600Z,102086.78
2019-03-27T07:03:37.082Z,102093.74
2019-03-27T07:06:41.554Z,102099.84
2019-03-27T07:09:46.087Z,102101.20
2019-03-27T07:12:50.785Z,102102.56
2019-03-27T07:15:55.372Z,102096.46
2019-03-27T07:18:59.815Z,102101.70
2019-03-27T07:22:04.507Z,102098.13
2019-03-27T07:25:10.122Z,102098.98
2019-03-27T07:28:14.642Z,102099.48
2019-03-27T07:31:19.480Z,102094.72
2019-03-27T07:34:24.058Z,102103.52
2019-03-27T07:37:28.842Z,102107.90
2019-03-27T07:40:33.282Z,102111.45
2019-03-27T07:43:38.120Z,102108.52
2019-03-27T07:46:42.545Z,102110.75
2019-03-27T07:49:47.789Z,102119.94
2019-03-27T07:52:52.280Z,102125.17
2019-03-27T07:55:56.790Z,102128.66
2019-03-27T07:59:01.342Z,102135.22
2019-03-27T08:02:06.096Z,102136.10
2019-03-27T08:05:11.409Z,102139.22
2019-03-27T08:08:16.011Z,102140.64
2019-03-27T08:11:20.651Z,102141.16
2019-03-27T08:14:25.417Z,102141.18
2019-03-27T08:17:29.925Z,102139.41
2019-03-27T08:20:34.477Z,102136.02
2019-03-27T08:23:39.004Z,102129.94
2019-03-27T08:26:43.464Z,102132.59
2019-03-27T08:29:50.918Z,102131.28
2019-03-27T08:32:55.431Z,102134.80
2019-03-27T08:35:59.965Z,102132.18
2019-03-27T08:39:07.113Z,102126.94
2019-03-27T08:42:11.440Z,102127.37
2019-03-27T08:45:16.144Z,102126.90
2019-03-27T08:48:20.871Z,102126.92
2019-03-27T08:51:25.445Z,102126.03
2019-03-27T08:54:29.954Z,102128.22
2019-03-27T08:57:34.397Z,102133.92
2019-03-27T09:00:50.011Z,102137.88
2019-03-27T09:03:54.459Z,102143.13
2019-03-27T09:06:59.208Z,102134.77
2019-03-27T09:10:04.612Z,102140.46
2019-03-27T09:13:09.059Z,102141.34
2019-03-27T09:16:14.948Z,102142.56
2019-03-27T09:19:19.690Z,102140.18
2019-03-27T09:22:24.544Z,102140.59
2019-03-27T09:25:29.522Z,102143.37
2019-03-27T09:28:34.022Z,102150.31
2019-03-27T09:31:44.694Z,102145.92
2019-03-27T09:34:44.901Z,102145.83
2019-03-27T09:37:50.045Z,102150.92
2019-03-27T09:40:54.518Z,102150.00
2019-03-27T09:43:59.312Z,102147.58
2019-03-27T09:47:03.901Z,102145.95
2019-03-27T09:50:09.614Z,102140.77
2019-03-27T09:53:14.151Z,102137.58
2019-03-27T09:56:19.737Z,102127.44
2019-03-27T09:59:24.706Z,102124.64
2019-03-27T10:02:29.147Z,102121.13
2019-03-27T10:05:33.597Z,102113.84
2019-03-27T10:08:38.310Z,102115.30
2019-03-27T10:11:42.793Z,102111.77
2019-03-27T10:14:47.835Z,102111.16
2019-03-27T10:17:52.301Z,102111.67
2019-03-27T10:20:56.796Z,102113.73
2019-03-27T10:24:01.908Z,102120.42
2019-03-27T10:27:06.729Z,102114.25
2019-03-27T10:30:11.885Z,102122.89
2019-03-27T10:33:16.472Z,102123.48
2019-03-27T10:36:21.672Z,102126.45
2019-03-27T10:39:26.312Z,102125.41
2019-03-27T10:42:30.783Z,102128.11
2019-03-27T10:45:36.205Z,102131.24
2019-03-27T10:48:51.821Z,102128.31
2019-03-27T10:51:47.745Z,102136.33
2019-03-27T10:54:52.250Z,102136.84
2019-03-27T10:57:57.125Z,102135.61
2019-03-27T11:01:01.641Z,102138.16
2019-03-27T11:04:06.283Z,102140.00
2019-03-27T11:07:10.829Z,102141.33
2019-03-27T11:10:15.703Z,102138.52
2019-03-27T11:13:23.315Z,102139.40
2019-03-27T11:16:28.118Z,102133.98
2019-03-27T11:19:33.660Z,102140.09
2019-03-27T11:22:38.631Z,102129.96
2019-03-27T11:25:43.514Z,102125.02
2019-03-27T11:28:48.182Z,102126.80
2019-03-27T11:31:52.821Z,102123.53
2019-03-27T11:34:57.763Z,102130.77
2019-03-27T11:38:04.274Z,102129.16
2019-03-27T11:41:12.210Z,102126.51
2019-03-27T11:44:16.076Z,102124.85
2019-03-27T11:47:20.613Z,102127.83
2019-03-27T11:50:26.033Z,102123.48
2019-03-27T11:53:30.579Z,102114.70
2019-03-27T11:56:35.033Z,102114.25
2019-03-27T11:59:52.885Z,102105.05
2019-03-27T12:02:45.786Z,102110.69
2019-03-27T12:05:50.610Z,102109.93
2019-03-27T12:08:55.354Z,102105.66
2019-03-27T12:12:01.437Z,102105.93
2019-03-27T12:15:07.502Z,102103.81
2019-03-27T12:18:14.243Z,102098.88
2019-03-27T12:21:18.946Z,102095.09
2019-03-27T12:24:23.262Z,102102.13
2019-03-27T12:27:27.822Z,102098.57
2019-03-27T12:30:32.449Z,102087.03
2019-03-27T12:33:38.467Z,102090.22
2019-03-27T12:36:42.814Z,102090.38
2019-03-27T12:39:47.237Z,102093.23
2019-03-27T12:42:52.326Z,102095.25
2019-03-27T12:45:57.110Z,102088.91
2019-03-27T12:49:01.787Z,102094.81
2019-03-27T12:52:06.421Z,102096.48
2019-03-27T12:55:11.130Z,102089.97
2019-03-27T12:58:15.717Z,102084.20
2019-03-27T13:01:20.130Z,102081.59
2019-03-27T13:04:24.587Z,102081.67
2019-03-27T13:07:29.112Z,102079.26
2019-03-27T13:10:33.604Z,102077.95
2019-03-27T13:13:38.166Z,102085.61
2019-03-27T13:16:43.203Z,102081.45
2019-03-27T13:19:47.612Z,102070.91
2019-03-27T13:22:52.468Z,102071.57
2019-03-27T13:25:56.864Z,102070.78
2019-03-27T13:29:01.990Z,102068.69
2019-03-27T13:32:07.153Z,102070.25
2019-03-27T13:35:11.933Z,102074.49
2019-03-27T13:38:16.841Z,102067.44
2019-03-27T13:41:21.216Z,102064.02
2019-03-27T13:44:36.374Z,102058.77
2019-03-27T13:47:32.221Z,102058.13
2019-03-27T13:50:37.070Z,102057.68
2019-03-27T13:53:41.693Z,102047.55
2019-03-27T13:56:46.427Z,102051.73
2019-03-27T13:59:51.052Z,102051.41
2019-03-27T14:02:55.814Z,102055.01
2019-03-27T14:06:00.369Z,102054.58
2019-03-27T14:09:07.698Z,102050.27
2019-03-27T14:12:12.196Z,102050.48
2019-03-27T14:15:17.421Z,102050.72
2019-03-27T14:18:21.914Z,102033.42
2019-03-27T14:21:26.641Z,102040.66
2019-03-27T14:24:31.112Z,102039.30
2019-03-27T14:27:36.052Z,102035.24
2019-03-27T14:30:54.361Z,102032.70
2019-03-27T14:33:58.830Z,102035.95
2019-03-27T14:37:03.380Z,102031.45
2019-03-27T14:40:08.993Z,102032.27
2019-03-27T14:43:13.612Z,102026.02
2019-03-27T14:46:17.971Z,102029.44
2019-03-27T14:49:22.418Z,102028.86
2019-03-27T14:52:26.999Z,102036.17
2019-03-27T14:55:31.521Z,102035.98
2019-03-27T14:58:36.141Z,102026.78
2019-03-27T15:01:40.488Z,102037.02
2019-03-27T15:04:44.822Z,102027.27
2019-03-27T15:07:49.231Z,102020.44
2019-03-27T15:10:53.797Z,102025.32
2019-03-27T15:13:58.580Z,102027.23
2019-03-27T15:17:02.997Z,102030.31
2019-03-27T15:20:07.862Z,102027.47
2019-03-27T15:23:12.381Z,102027.03
2019-03-27T15:26:16.808Z,102030.16
2019-03-27T15:29:21.608Z,102028.31
2019-03-27T15:32:26.792Z,102027.09
2019-03-27T15:35:31.172Z,102032.45
2019-03-27T15:38:35.782Z,102024.31
2019-03-27T15:41:40.451Z,102033.20
2019-03-27T15:44:45.350Z,102030.55
2019-03-27T15:47:50.286Z,102024.45
2019-03-27T15:50:58.724Z,102030.70
2019-03-27T15:54:01.211Z,102040.36
2019-03-27T15:57:05.734Z,102039.20
2019-03-27T16:00:10.230Z,102037.85
2019-03-27T16:03:14.602Z,102035.23
2019-03-27T16:06:19.027Z,102028.52
2019-03-27T16:09:23.463Z,102027.59
2019-03-27T16:12:27.770Z,102025.76
2019-03-27T16:15:32.503Z,102032.12
2019-03-27T16:18:37.024Z,102027.06
2019-03-27T16:21:41.823Z,102027.34
2019-03-27T16:24:46.245Z,102033.76
2019-03-27T16:27:50.912Z,102033.63
2019-03-27T16:30:55.678Z,102034.13
2019-03-27T16:34:00.480Z,102035.32
2019-03-27T16:37:04.898Z,102028.66
2019-03-27T16:40:09.609Z,102027.78
2019-03-27T16:43:14.651Z,102031.15
2019-03-27T16:46:19.300Z,102028.84
2019-03-27T16:49:24.850Z,102043.11
2019-03-27T16:52:29.158Z,102047.08
2019-03-27T16:55:33.603Z,102048.36
2019-03-27T16:58:38.140Z,102044.77
2019-03-27T17:01:42.837Z,102047.33
2019-03-27T17:04:47.476Z,102049.41
2019-03-27T17:07:51.924Z,102051.22
2019-03-27T17:10:56.668Z,102054.08
2019-03-27T17:14:01.183Z,102059.16
2019-03-27T17:17:05.633Z,102057.07
2019-03-27T17:20:10.476Z,102064.90
2019-03-27T17:23:18.600Z,102069.91
2019-03-27T17:26:22.280Z,102074.88
2019-03-27T17:29:27.687Z,102072.77
2019-03-27T17:32:32.154Z,102076.78
2019-03-27T17:35:36.573Z,102071.59
2019-03-27T17:38:41.303Z,102070.48
2019-03-27T17:41:46.232Z,102077.31
2019-03-27T17:44:52.173Z,102083.70
2019-03-27T17:47:56.851Z,102082.40
2019-03-27T17:51:01.504Z,102089.95
2019-03-27T17:54:19.670Z,102089.95
2019-03-27T17:57:12.021Z,102091.28
2019-03-27T18:00:21.136Z,102093.66
2019-03-27T18:03:25.714Z,102096.92
2019-03-27T18:06:30.074Z,102105.77
2019-03-27T18:09:34.512Z,102106.27
2019-03-27T18:12:39.004Z,102113.69
2019-03-27T18:15:43.452Z,102113.36
2019-03-27T18:18:47.898Z,102112.17
2019-03-27T18:22:06.785Z,102120.09
2019-03-27T18:24:59.092Z,102125.77
2019-03-27T18:28:03.639Z,102127.17
2019-03-27T18:31:08.369Z,102128.50
2019-03-27T18:34:12.838Z,102132.48
2019-03-27T18:37:17.202Z,102134.28
2019-03-27T18:40:21.602Z,102138.20
2019-03-27T18:43:26.110Z,102141.28
2019-03-27T18:46:30.445Z,102139.92
2019-03-27T18:49:35.005Z,102144.77
2019-03-27T18:52:39.444Z,102142.64
2019-03-27T18:55:43.914Z,102152.75
2019-03-27T18:58:49.114Z,102161.14
2019-03-27T19:01:56.596Z,102162.02
2019-03-27T19:05:02.122Z,102159.89
2019-03-27T19:08:07.058Z,102168.24
2019-03-27T19:11:12.046Z,102170.44
2019-03-27T19:14:16.345Z,102173.11
2019-03-27T19:17:21.181Z,102179.70
2019-03-27T19:20:25.567Z,102181.95
2019-03-27T19:23:29.990Z,102182.86
2019-03-27T19:26:34.518Z,102188.16
2019-03-27T19:29:39.215Z,102186.03
2019-03-27T19:32:43.745Z,102185.14
2019-03-27T19:35:48.488Z,102186.49
2019-03-27T19:38:53.357Z,102190.46
2019-03-27T19:41:57.878Z,102186.09
2019-03-27T19:45:02.488Z,102188.30
2019-03-27T19:48:07.291Z,102191.81
2019-03-27T19:51:13.187Z,102191.39
2019-03-27T19:54:26.890Z,102192.70
2019-03-27T19:57:23.782Z,102190.08
2019-03-27T20:00:28.492Z,102199.30
2019-03-27T20:03:34.675Z,102197.55
2019-03-27T20:06:39.276Z,102195.34
2019-03-27T20:09:43.876Z,102200.60
2019-03-27T20:12:49.024Z,102204.13
2019-03-27T20:15:53.386Z,102208.50
2019-03-27T20:18:57.885Z,102214.20
2019-03-27T20:22:03.042Z,102217.26
2019-03-27T20:25:08.641Z,102216.39
2019-03-27T20:28:13.073Z,102216.84
2019-03-27T20:31:17.621Z,102219.91
2019-03-27T20:34:23.296Z,102213.73
2019-03-27T20:37:27.993Z,102216.37
2019-03-27T20:40:32.793Z,102211.55
2019-03-27T20:43:37.445Z,102213.28
2019-03-27T20:46:41.792Z,102210.66
2019-03-27T20:49:46.222Z,102220.68
2019-03-27T20:52:50.670Z,102218.02
2019-03-27T20:55:55.006Z,102218.00
2019-03-27T20:59:01.506Z,102216.64
2019-03-27T21:02:06.058Z,102217.52
2019-03-27T21:05:10.933Z,102224.52
2019-03-27T21:08:15.436Z,102224.50
2019-03-27T21:11:20.463Z,102227.52
2019-03-27T21:14:24.965Z,102228.36
2019-03-27T21:17:29.655Z,102230.09
2019-03-27T21:20:34.465Z,102230.88
2019-03-27T21:23:38.959Z,102239.95
2019-03-27T21:26:43.706Z,102236.42
2019-03-27T21:29:48.087Z,102224.21
2019-03-27T21:32:52.571Z,102227.73
2019-03-27T21:35:56.977Z,102223.33
2019-03-27T21:39:01.347Z,102225.48
2019-03-27T21:42:06.124Z,102233.66
2019-03-27T21:45:11.444Z,102230.98
2019-03-27T21:48:16.032Z,102235.23
2019-03-27T21:51:20.590Z,102235.52
2019-03-27T21:54:25.011Z,102237.20
2019-03-27T21:57:29.570Z,102231.05
2019-03-27T22:00:38.847Z,102235.39
2019-03-27T22:03:43.395Z,102243.22
2019-03-27T22:06:48.100Z,102237.07
2019-03-27T22:09:52.473Z,102238.84
2019-03-27T22:12:57.387Z,102242.36
2019-03-27T22:16:01.963Z,102238.76
2019-03-27T22:19:06.536Z,102240.50
2019-03-27T22:22:10.923Z,102241.31
2019-03-27T22:25:15.420Z,102240.35
2019-03-27T22:28:19.983Z,102242.05
2019-03-27T22:31:24.577Z,102243.77
2019-03-27T22:34:28.895Z,102244.13
2019-03-27T22:37:33.202Z,102246.22
2019-03-27T22:40:37.741Z,102251.44
2019-03-27T22:43:42.701Z,102252.09
2019-03-27T22:46:47.125Z,102253.40
2019-03-27T22:49:51.682Z,102251.99
2019-03-27T22:52:56.012Z,102255.39
2019-03-27T22:56:00.327Z,102259.94
2019-03-27T22:59:04.754Z,102259.39
2019-03-27T23:02:09.280Z,102265.93
2019-03-27T23:05:13.974Z,102257.13
2019-03-27T23:08:18.530Z,102260.23
2019-03-27T23:11:22.911Z,102263.11
2019-03-27T23:14:27.760Z,102269.52
2019-03-27T23:17:32.445Z,102262.45
2019-03-27T23:20:37.620Z,102262.23
2019-03-27T23:23:42.134Z,102265.66
2019-03-27T23:26:46.696Z,102267.36
2019-03-27T23:29:51.157Z,102265.55
2019-03-27T23:32:55.607Z,102273.05
2019-03-27T23:36:00.543Z,102272.90
2019-03-27T23:39:07.197Z,102274.36
2019-03-27T23:42:16.180Z,102270.40
2019-03-27T23:45:20.159Z,102262.82
2019-03-27T23:48:25.646Z,102267.52
2019-03-27T23:51:30.119Z,102267.63
2019-03-27T23:54:35.099Z,102267.39
2019-03-27T23:57:39.479Z,102272.62
